Ana Sayfa
METAR-TAF:

METAR-TAF

Havaalanları :

Guaymas, Meksika

Enlem: 27-58N, Boylam: 110-56W, yükseklik: 27 m

Güncel hava durumu gözlemi

Rapor saat 17:51 UTC de 26 dakika önce yapıldı.
Rüzgar güneydan 13 kt
Sıcaklık 34°C
Nem 67%
Basınç 1013 hPa
Görüş mesafesi: 16.1 km
1500 ft yükseklikte az bulutlu

METAR: MMGM 221751Z 17013KT 10SM FEW015 34/27 A2992 RMK 8/100

Saat: 11:17 (18:17 UTC)

Tahmin

Rapor saat 17:13 UTC de 1 saat ve 4 dakika önce yapıldı.
Ayın 22'si saat 18 UTC'den ayın 23'si saat 18 UTC'ye kadar geçerli Tahmin
Rüzgar güney/güneybatıdan 10 kt
Görüş mesafesi: 10 km
2500 ft yükseklikte parçalı bulutlu
9000 ft yükseklikte parçalı bulutlu
Ayın 23'si saat 0400 UTC'den
Rüzgar kuzey/kuzeybatıdan 5 kt
Görüş mesafesi: 10 km

TAF: MMGM 221713Z 2218/2318 20010KT P6SM SCT025 SCT090 FM230400 33005KT P6SM SCT2020

4.000'den fazla havaalanı için hava durumu gözlemleri ve tahminleri (METAR ve TAF raporları).

Kullanılabilir istasyonlar harita üzerinde sarı ve kırmızı noktalarla gösterilir.

İstasyonun adını görmek için fareyi noktanın üzerinde gezdirin.

Sonrasında hava gözlem ve tahminlerini görmek için tıklayın.

Haritayı değiştirmek için: yaklaştırmak için siyah artı işaretli yeşil düğmeye ve uzaklaştırmak için de eksi işaretli düğmeye hızla tıklayın; bitişik haritalar için yeşil okları kullanın.


METAR-TAF: